sensor_id;sensor_type;location;lat;lon;timestamp;temperature;humidity
12843;DHT22;35724;49.324;-123.118;2023-10-09T00:03:40;26.70;64.10
12843;DHT22;35724;49.324;-123.118;2023-10-09T00:13:50;26.60;64.10
12843;DHT22;35724;49.324;-123.118;2023-10-09T00:24:02;26.50;64.80
12843;DHT22;35724;49.324;-123.118;2023-10-09T00:34:21;26.60;65.00
12843;DHT22;35724;49.324;-123.118;2023-10-09T00:44:31;26.40;65.60
12843;DHT22;35724;49.324;-123.118;2023-10-09T00:54:47;26.30;66.40
12843;DHT22;35724;49.324;-123.118;2023-10-09T01:04:56;26.20;67.40
12843;DHT22;35724;49.324;-123.118;2023-10-09T01:15:07;26.10;67.50
12843;DHT22;35724;49.324;-123.118;2023-10-09T01:25:24;26.00;67.50
12843;DHT22;35724;49.324;-123.118;2023-10-09T01:35:37;26.00;67.40
12843;DHT22;35724;49.324;-123.118;2023-10-09T01:45:53;25.90;67.40
12843;DHT22;35724;49.324;-123.118;2023-10-09T01:56:09;25.90;67.20
12843;DHT22;35724;49.324;-123.118;2023-10-09T02:06:21;25.90;67.40
12843;DHT22;35724;49.324;-123.118;2023-10-09T02:16:33;26.00;67.70
12843;DHT22;35724;49.324;-123.118;2023-10-09T02:26:49;26.00;67.70
12843;DHT22;35724;49.324;-123.118;2023-10-09T02:37:10;26.00;68.00
12843;DHT22;35724;49.324;-123.118;2023-10-09T02:47:21;26.10;67.80
12843;DHT22;35724;49.324;-123.118;2023-10-09T02:57:30;26.00;67.50
12843;DHT22;35724;49.324;-123.118;2023-10-09T03:07:43;26.10;66.80
12843;DHT22;35724;49.324;-123.118;2023-10-09T03:17:51;26.00;66.60
12843;DHT22;35724;49.324;-123.118;2023-10-09T03:27:59;25.90;66.30
12843;DHT22;35724;49.324;-123.118;2023-10-09T03:38:07;25.70;66.10
12843;DHT22;35724;49.324;-123.118;2023-10-09T03:48:21;25.70;65.90
12843;DHT22;35724;49.324;-123.118;2023-10-09T03:58:31;25.60;66.00
12843;DHT22;35724;49.324;-123.118;2023-10-09T04:08:41;25.60;65.90
12843;DHT22;35724;49.324;-123.118;2023-10-09T04:18:54;25.50;65.80
12843;DHT22;35724;49.324;-123.118;2023-10-09T04:29:03;25.50;66.10
12843;DHT22;35724;49.324;-123.118;2023-10-09T04:39:11;25.50;65.40
12843;DHT22;35724;49.324;-123.118;2023-10-09T04:49:42;25.50;65.10
12843;DHT22;35724;49.324;-123.118;2023-10-09T04:59:54;25.70;64.70
12843;DHT22;35724;49.324;-123.118;2023-10-09T05:10:06;25.90;65.00
12843;DHT22;35724;49.324;-123.118;2023-10-09T05:20:20;25.90;65.80
12843;DHT22;35724;49.324;-123.118;2023-10-09T05:30:45;26.00;66.20
12843;DHT22;35724;49.324;-123.118;2023-10-09T05:41:01;26.00;66.40
12843;DHT22;35724;49.324;-123.118;2023-10-09T05:51:30;26.10;66.70
12843;DHT22;35724;49.324;-123.118;2023-10-09T06:01:49;26.10;67.10
12843;DHT22;35724;49.324;-123.118;2023-10-09T06:12:14;26.00;67.30
12843;DHT22;35724;49.324;-123.118;2023-10-09T06:22:57;26.00;67.50
12843;DHT22;35724;49.324;-123.118;2023-10-09T06:33:22;26.10;67.90
12843;DHT22;35724;49.324;-123.118;2023-10-09T06:43:57;26.00;68.20
12843;DHT22;35724;49.324;-123.118;2023-10-09T06:54:14;26.00;67.40
12843;DHT22;35724;49.324;-123.118;2023-10-09T07:04:22;25.90;67.50
12843;DHT22;35724;49.324;-123.118;2023-10-09T07:14:44;25.90;67.40
12843;DHT22;35724;49.324;-123.118;2023-10-09T07:25:05;25.90;67.40
12843;DHT22;35724;49.324;-123.118;2023-10-09T07:35:22;25.80;66.90
12843;DHT22;35724;49.324;-123.118;2023-10-09T07:45:52;25.80;66.60
12843;DHT22;35724;49.324;-123.118;2023-10-09T07:56:18;25.80;66.40
12843;DHT22;35724;49.324;-123.118;2023-10-09T08:06:25;25.80;66.00
12843;DHT22;35724;49.324;-123.118;2023-10-09T08:17:06;25.80;65.60
12843;DHT22;35724;49.324;-123.118;2023-10-09T08:27:20;25.70;65.50
12843;DHT22;35724;49.324;-123.118;2023-10-09T08:37:51;25.70;65.50
12843;DHT22;35724;49.324;-123.118;2023-10-09T08:47:59;25.70;65.20
12843;DHT22;35724;49.324;-123.118;2023-10-09T08:58:11;25.70;65.30
12843;DHT22;35724;49.324;-123.118;2023-10-09T09:08:24;25.70;64.90
12843;DHT22;35724;49.324;-123.118;2023-10-09T09:18:49;25.70;64.80
12843;DHT22;35724;49.324;-123.118;2023-10-09T09:29:06;25.70;65.20
12843;DHT22;35724;49.324;-123.118;2023-10-09T09:39:15;25.70;64.50
12843;DHT22;35724;49.324;-123.118;2023-10-09T09:49:45;25.70;64.60
12843;DHT22;35724;49.324;-123.118;2023-10-09T09:59:57;25.70;64.40
12843;DHT22;35724;49.324;-123.118;2023-10-09T10:10:36;25.70;64.50
12843;DHT22;35724;49.324;-123.118;2023-10-09T10:21:12;25.70;64.40
12843;DHT22;35724;49.324;-123.118;2023-10-09T10:31:51;25.70;64.60
12843;DHT22;35724;49.324;-123.118;2023-10-09T10:42:01;25.70;64.30
12843;DHT22;35724;49.324;-123.118;2023-10-09T10:52:21;25.70;64.50
12843;DHT22;35724;49.324;-123.118;2023-10-09T11:02:47;25.60;64.50
12843;DHT22;35724;49.324;-123.118;2023-10-09T11:12:57;25.60;64.80
12843;DHT22;35724;49.324;-123.118;2023-10-09T11:23:34;25.60;65.10
12843;DHT22;35724;49.324;-123.118;2023-10-09T11:33:49;25.70;65.10
12843;DHT22;35724;49.324;-123.118;2023-10-09T11:43:58;25.70;65.20
12843;DHT22;35724;49.324;-123.118;2023-10-09T11:54:29;25.70;65.50
12843;DHT22;35724;49.324;-123.118;2023-10-09T12:04:38;25.70;65.30
12843;DHT22;35724;49.324;-123.118;2023-10-09T12:14:50;25.70;65.30
12843;DHT22;35724;49.324;-123.118;2023-10-09T12:24:59;25.70;65.10
12843;DHT22;35724;49.324;-123.118;2023-10-09T12:35:09;25.70;65.30
12843;DHT22;35724;49.324;-123.118;2023-10-09T12:45:23;25.70;65.30
12843;DHT22;35724;49.324;-123.118;2023-10-09T12:55:35;25.70;65.40
12843;DHT22;35724;49.324;-123.118;2023-10-09T13:05:48;25.70;65.30
12843;DHT22;35724;49.324;-123.118;2023-10-09T13:15:59;25.60;64.90
12843;DHT22;35724;49.324;-123.118;2023-10-09T13:26:09;25.60;65.00
12843;DHT22;35724;49.324;-123.118;2023-10-09T13:36:37;25.60;64.90
12843;DHT22;35724;49.324;-123.118;2023-10-09T13:46:46;25.60;64.90
12843;DHT22;35724;49.324;-123.118;2023-10-09T13:56:57;25.60;64.80
12843;DHT22;35724;49.324;-123.118;2023-10-09T14:07:06;25.60;64.90
12843;DHT22;35724;49.324;-123.118;2023-10-09T14:17:13;25.60;64.90
12843;DHT22;35724;49.324;-123.118;2023-10-09T14:27:26;25.60;64.70
12843;DHT22;35724;49.324;-123.118;2023-10-09T14:37:34;25.60;64.60
12843;DHT22;35724;49.324;-123.118;2023-10-09T14:47:45;25.60;65.00
12843;DHT22;35724;49.324;-123.118;2023-10-09T14:57:55;25.60;64.80
12843;DHT22;35724;49.324;-123.118;2023-10-09T15:08:05;25.60;64.70
12843;DHT22;35724;49.324;-123.118;2023-10-09T15:18:16;25.60;64.80
12843;DHT22;35724;49.324;-123.118;2023-10-09T15:28:28;25.60;64.90
12843;DHT22;35724;49.324;-123.118;2023-10-09T15:38:37;25.70;64.70
12843;DHT22;35724;49.324;-123.118;2023-10-09T15:48:46;25.80;64.80
12843;DHT22;35724;49.324;-123.118;2023-10-09T15:58:56;25.90;64.00
12843;DHT22;35724;49.324;-123.118;2023-10-09T16:09:06;25.90;64.10
12843;DHT22;35724;49.324;-123.118;2023-10-09T16:19:16;26.00;63.40
12843;DHT22;35724;49.324;-123.118;2023-10-09T16:29:26;25.90;61.90
12843;DHT22;35724;49.324;-123.118;2023-10-09T16:39:35;25.90;61.60
12843;DHT22;35724;49.324;-123.118;2023-10-09T16:49:46;25.90;60.40
12843;DHT22;35724;49.324;-123.118;2023-10-09T16:59:56;25.90;60.80
12843;DHT22;35724;49.324;-123.118;2023-10-09T17:10:06;25.70;60.20
12843;DHT22;35724;49.324;-123.118;2023-10-09T17:20:19;25.80;60.80
12843;DHT22;35724;49.324;-123.118;2023-10-09T17:30:33;25.90;61.10
12843;DHT22;35724;49.324;-123.118;2023-10-09T17:40:45;26.00;61.60
12843;DHT22;35724;49.324;-123.118;2023-10-09T17:50:58;26.00;62.50
12843;DHT22;35724;49.324;-123.118;2023-10-09T18:01:06;25.90;62.90
12843;DHT22;35724;49.324;-123.118;2023-10-09T18:11:15;26.00;63.10
12843;DHT22;35724;49.324;-123.118;2023-10-09T18:21:23;26.10;63.60
12843;DHT22;35724;49.324;-123.118;2023-10-09T18:31:34;26.00;63.70
12843;DHT22;35724;49.324;-123.118;2023-10-09T18:41:43;26.00;64.00
12843;DHT22;35724;49.324;-123.118;2023-10-09T18:51:54;26.00;64.30
12843;DHT22;35724;49.324;-123.118;2023-10-09T19:02:04;26.00;64.60
12843;DHT22;35724;49.324;-123.118;2023-10-09T19:12:17;26.00;64.40
12843;DHT22;35724;49.324;-123.118;2023-10-09T19:22:42;25.90;64.20
12843;DHT22;35724;49.324;-123.118;2023-10-09T19:33:20;25.90;64.40
12843;DHT22;35724;49.324;-123.118;2023-10-09T19:43:28;25.90;64.30
12843;DHT22;35724;49.324;-123.118;2023-10-09T19:53:36;25.90;64.40
12843;DHT22;35724;49.324;-123.118;2023-10-09T20:03:44;25.90;64.60
12843;DHT22;35724;49.324;-123.118;2023-10-09T20:13:53;25.90;64.50
12843;DHT22;35724;49.324;-123.118;2023-10-09T20:24:01;25.80;63.60
12843;DHT22;35724;49.324;-123.118;2023-10-09T20:34:10;25.70;63.60
12843;DHT22;35724;49.324;-123.118;2023-10-09T20:44:17;25.70;65.10
12843;DHT22;35724;49.324;-123.118;2023-10-09T20:54:27;25.60;64.00
12843;DHT22;35724;49.324;-123.118;2023-10-09T21:04:34;25.80;64.80
12843;DHT22;35724;49.324;-123.118;2023-10-09T21:14:44;26.00;65.50
12843;DHT22;35724;49.324;-123.118;2023-10-09T21:24:51;26.10;66.40
12843;DHT22;35724;49.324;-123.118;2023-10-09T21:35:00;26.20;66.80
12843;DHT22;35724;49.324;-123.118;2023-10-09T21:45:09;26.10;66.70
12843;DHT22;35724;49.324;-123.118;2023-10-09T21:55:18;26.10;66.80
12843;DHT22;35724;49.324;-123.118;2023-10-09T22:05:26;26.10;68.00
12843;DHT22;35724;49.324;-123.118;2023-10-09T22:15:38;26.10;66.90
12843;DHT22;35724;49.324;-123.118;2023-10-09T22:25:58;26.00;64.10
12843;DHT22;35724;49.324;-123.118;2023-10-09T22:36:08;25.80;63.90
12843;DHT22;35724;49.324;-123.118;2023-10-09T22:46:16;25.70;63.70
12843;DHT22;35724;49.324;-123.118;2023-10-09T22:56:26;25.80;64.20
12843;DHT22;35724;49.324;-123.118;2023-10-09T23:06:35;25.90;64.60
12843;DHT22;35724;49.324;-123.118;2023-10-09T23:16:47;25.90;64.90
12843;DHT22;35724;49.324;-123.118;2023-10-09T23:27:09;25.90;65.50
12843;DHT22;35724;49.324;-123.118;2023-10-09T23:37:32;25.90;65.80
12843;DHT22;35724;49.324;-123.118;2023-10-09T23:47:44;25.90;66.20
12843;DHT22;35724;49.324;-123.118;2023-10-09T23:57:53;25.90;66.40
